首页
METAR-TAF:

METAR-TAF

机场 :

地拉那特蕾莎修女國際機場

地拉那, 阿尔巴尼亚

纬度: 41-20N, 经度: 019-47E, 海拔: 89米

当前天气观测

该预报发布于24分钟前的23:50 UTC
风速2节,风向多变
温度 14°C
湿度 94%
气压 1014 hPa
能见度10公里或以上
散云层高于3000英尺
多云层高于8000英尺

METAR: LATI 312350Z VRB02KT 9999 SCT030 BKN080 14/13 Q1014 NOSIG

时间: 02:14 (00:14 UTC)

预报

该预报发布于1小时和14分钟前的23:00 UTC
预报有效从01日的 00点(UTC)到 01日的 24点(UTC)
风速5节,风向多变
能见度10公里或以上
散云层高于2000英尺, 塔状积云.
多云层高于5000英尺
短暂存在
从 01日的 02点(UTC)到 01日的 06点(UTC)
散云层高于1500英尺, 积雨云.
阵雨
短暂存在
从 01日的 11点(UTC)到 01日的 17点(UTC)
风速14节,风向西北
雷暴, 小雨

TAF: LATI 312300Z 0100/0124 VRB05KT 9999 SCT020TCU BKN050 TX20/0112Z TN13/0104Z TEMPO 0102/0106 SHRA SCT015CB TEMPO 0111/0117 32014KT -TSRA

超过4000个机场的气象观测和天气预报(METAR&TAF报告)。

可查询的气象台以黄色和红色小点在地图上表示。

将鼠标移到小点上方,可查看气象台名称。

然后点击查看天气观测和预报。

如需切换地图:点击带黑十字的绿色按钮放大地图;点击带横线的绿色按钮缩小地图;或者点击绿色箭头查看邻近地区的地图。


METAR-TAF: